Página principal
METAR-TAF:

METAR-TAF

Aeroportos :

Guilin, China

Aeroporto Internacional de Guilin Liangjiang

latitude: 25-20N, longitude: 110-18E, altura: 166 m

Observação actual do tempo

O boletim foi feito há 35 minutos, às 21:00 UTC
Vento 6 kt de nor-nordeste, variando entre norte e este
Temperatura 10°C
Humidade 82%
Pressão 1017 hPa
Visibilidade 10 km ou mais
Nuvens dispersasa uma altura de 1100 ft
Encobertoa uma altura de 2600 ft
chuva fraca

METAR: ZGKL 192100Z 03003MPS 010V080 9999 -RA SCT011 OVC026 10/07 Q1017 NOSIG

Hora: 05:35 (21:35 UTC)

Previsão

O boletim foi feito há 6 horas e 29 minutos, às 15:06 UTC
Previsão válida de 19 às 18 UTC a 20 às 18 UTC
Vento 4 kt de nordeste
Visibilidade: 6000 m
Nuvens dispersasa uma altura de 2600 ft
Encobertoa uma altura de 3300 ft
chuva fraca

TAF: ZGKL 191506Z 1918/2018 05002MPS 6000 -RA SCT026 OVC033 TX12/2007Z TN07/1923Z

Observações e previsões do tempo de mais de 4000 aeroportos (mensagens METAR e TAF).

As estações disponíveis são os pontos amarelos e vermelhos sobre o mapa.

Mova o rato sobre o mapa para ver o nome da estação.

Depois clique no ponto para visualizar as observações e previsões meteorológicas.

Para alterar o mapa : clique nos botões verdes com uma cruz preta para aumentar o zoom; no botão verde com uma pitada de zoom; ou nas setas verdes para mapas adjacentes.


METAR-TAF: